»·PEaware :: EJA150 KTRK-KPRC

EJA150 :: KTRK-KPRC

FLIGHT INFORMATION

Flight Status: Arrived
Operator:
Netjets Aviation
More flights by this operator :: More flights under this callsign
Pilot: Ian G. (41107)
Aircraft: Cessna 700 Citation Longitude
(C700)
More flights by this aircraft type
Origin: KTRK Truckee-Tahoe
United States
Destination: KPRC Love
United States
More flights between these airports :: More routes between these airports
Route: MOWGL2 SWR LIDAT J92 BTY DRK
File this flight plan on PilotEdge
Remarks: RMK / SIMBRIEF
Altitude:
(Current/Filed)
45,000ft
Speed:
(Current/Filed)
476kts
Departed: 22-Sep-23 07:46 PM
Arrived: 22-Sep-23 08:56 PM
Distance/Time
Traveled:
464nm/1:10
Distance/Time
To Go:
Arrived

Flight Plot

Page will automatically refresh every two minutes.

Flight plan parsing failed; only flown route is shown


Map Options




Map Legend


Flown Route
Filed Route
Departure Airport
Arrival Airport
Navaid (VOR, NDB)
Fix

Horizontal Profiles

Position Reports

Time Latitude Longitude Heading Altitude Ground
Speed
22-Sep-23 19:34 39.319258 -120.143889 209 5902ft 0kts
22-Sep-23 19:35 39.319258 -120.143889 209 5902ft 0kts
22-Sep-23 19:36 39.319258 -120.143889 209 5902ft 0kts
22-Sep-23 19:37 39.319258 -120.143889 209 5902ft 0kts
22-Sep-23 19:38 39.319258 -120.143889 209 5902ft 0kts
22-Sep-23 19:39 39.319258 -120.143889 209 5902ft 0kts
22-Sep-23 19:40 39.319258 -120.143889 209 5902ft 0kts
22-Sep-23 19:41 39.319256 -120.143890 209 5902ft 0kts
22-Sep-23 19:42 39.318874 -120.141213 120 5902ft 11kts
22-Sep-23 19:43 39.317062 -120.137152 120 5903ft 15kts
22-Sep-23 19:44 39.315881 -120.133410 25 5905ft 6kts
22-Sep-23 19:45 39.327672 -120.158915 301 6293ft 207kts
22-Sep-23 19:46 39.382920 -120.185122 357 9600ft 266kts
22-Sep-23 19:47 39.454565 -120.226308 306 14678ft 295kts
22-Sep-23 19:48 39.459478 -120.330654 240 18668ft 346kts
22-Sep-23 19:49 39.366359 -120.386496 181 21872ft 413kts
22-Sep-23 19:50 39.255714 -120.335392 147 25381ft 445kts
22-Sep-23 19:51 39.159032 -120.231684 128 28509ft 470kts
22-Sep-23 19:52 39.080764 -120.091890 128 31441ft 488kts
22-Sep-23 19:53 39.001874 -119.951678 130 34868ft 480kts
22-Sep-23 19:54 38.923910 -119.813740 132 37350ft 476kts
22-Sep-23 19:55 38.846063 -119.676584 133 39299ft 473kts
22-Sep-23 19:56 38.768398 -119.540336 133 40566ft 473kts
22-Sep-23 19:57 38.690501 -119.404296 133 41654ft 474kts
22-Sep-23 19:58 38.612573 -119.268728 133 42573ft 474kts
22-Sep-23 19:59 38.534327 -119.133170 133 43412ft 473kts
22-Sep-23 20:00 38.455996 -118.998037 133 44160ft 473kts
22-Sep-23 20:01 38.377729 -118.863580 133 44828ft 473kts
22-Sep-23 20:02 38.298843 -118.728658 133 45105ft 478kts
22-Sep-23 20:03 38.218638 -118.591993 133 45092ft 488kts
22-Sep-23 20:04 38.136339 -118.452356 133 45081ft 497kts
22-Sep-23 20:05 38.053082 -118.311691 134 45062ft 500kts
22-Sep-23 20:06 37.969312 -118.170786 134 45051ft 501kts
22-Sep-23 20:07 37.885498 -118.030416 134 45038ft 501kts
22-Sep-23 20:08 37.801180 -117.889784 134 45022ft 502kts
22-Sep-23 20:09 37.716392 -117.748995 134 45022ft 503kts
22-Sep-23 20:10 37.631672 -117.608885 135 45012ft 503kts
22-Sep-23 20:11 37.546526 -117.468661 135 45011ft 503kts
22-Sep-23 20:12 37.461160 -117.328703 135 45005ft 504kts
22-Sep-23 20:13 37.358778 -117.217497 154 45001ft 481kts
22-Sep-23 20:14 37.247993 -117.123506 155 44996ft 482kts
22-Sep-23 20:15 37.136230 -117.029072 155 44992ft 483kts
22-Sep-23 20:16 37.024995 -116.935462 155 44984ft 482kts
22-Sep-23 20:17 36.913543 -116.842009 155 44971ft 482kts
22-Sep-23 20:18 36.806106 -116.741543 141 44960ft 499kts
22-Sep-23 20:19 36.728905 -116.592443 128 44954ft 517kts
22-Sep-23 20:20 36.656811 -116.437344 128 44957ft 518kts
22-Sep-23 20:21 36.584183 -116.281782 128 44957ft 519kts
22-Sep-23 20:22 36.511490 -116.126781 128 44969ft 520kts
22-Sep-23 20:23 36.438212 -115.971245 128 45009ft 521kts
22-Sep-23 20:24 36.364909 -115.816373 128 45025ft 520kts
22-Sep-23 20:25 36.291408 -115.661783 128 45017ft 521kts
22-Sep-23 20:26 36.217648 -115.507358 128 44985ft 522kts
22-Sep-23 20:27 36.143431 -115.352702 128 44991ft 521kts
22-Sep-23 20:28 36.069427 -115.199115 129 44257ft 516kts
22-Sep-23 20:29 35.998273 -115.052229 130 41963ft 487kts
22-Sep-23 20:30 35.928210 -114.908102 131 39469ft 493kts
22-Sep-23 20:31 35.866056 -114.780736 130 37297ft 493kts
22-Sep-23 20:32 35.833902 -114.715266 130 36186ft 489kts
22-Sep-23 20:33 35.763673 -114.572128 128 33885ft 485kts
22-Sep-23 20:34 35.693397 -114.429654 128 31445ft 492kts
22-Sep-23 20:35 35.621903 -114.285214 127 29044ft 491kts
22-Sep-23 20:36 35.552009 -114.144732 127 26949ft 478kts
22-Sep-23 20:37 35.483899 -114.008318 127 25128ft 463kts
22-Sep-23 20:38 35.415744 -113.872445 127 24105ft 482kts
22-Sep-23 20:39 35.345204 -113.732180 127 24101ft 485kts
22-Sep-23 20:40 35.275773 -113.594566 127 23465ft 455kts
22-Sep-23 20:41 35.210217 -113.465401 127 21856ft 439kts
22-Sep-23 20:42 35.146900 -113.341053 127 20257ft 427kts
22-Sep-23 20:43 35.085187 -113.220236 128 18432ft 411kts
22-Sep-23 20:44 35.025366 -113.103532 127 16407ft 400kts
22-Sep-23 20:45 34.966946 -112.989926 126 14513ft 390kts
22-Sep-23 20:46 34.910907 -112.881159 126 12559ft 352kts
22-Sep-23 20:47 34.862273 -112.787268 125 10620ft 309kts
22-Sep-23 20:48 34.817851 -112.701663 125 9186ft 296kts
22-Sep-23 20:49 34.789109 -112.613922 100 8919ft 255kts
22-Sep-23 20:50 34.776751 -112.543581 105 8948ft 194kts
22-Sep-23 20:51 34.748521 -112.489527 128 8011ft 183kts
22-Sep-23 20:52 34.722714 -112.445025 126 6662ft 135kts
22-Sep-23 20:53 34.700597 -112.407452 126 5977ft 129kts
22-Sep-23 20:54 34.671857 -112.401117 221 5361ft 120kts
22-Sep-23 20:55 34.652875 -112.421208 221 5010ft 32kts
22-Sep-23 20:56 34.650065 -112.425626 223 5020ft 16kts

Navigation Log

Ident Type
Flight plan parsing failed, navigation log unavailable